Time;durP1;ratioP1;P1;durP2;ratioP2;P2;SDS_P1;SDS_P2;PMS_P1;PMS_P2;Temp;Humidity;BMP_temperature;BMP_pressure;BME280_temperature;BME280_humidity;BME280_pressure;Samples;Min_cycle;Max_cycle;Signal;HPM_P1;HPM_P2
2023/04/30 00:01:03;;;;;;;16.73;7.27;;;;;;;-145.18;100.00;46631.09;4950518;28;20126;-69
2023/04/30 00:03:28;;;;;;;14.73;7.70;;;;;;;-145.18;100.00;46629.13;4947701;28;20040;-69
2023/04/30 00:05:53;;;;;;;13.60;7.50;;;;;;;-145.18;100.00;46633.06;4950484;29;20063;-69
2023/04/30 00:08:19;;;;;;;15.57;7.50;;;;;;;-145.18;100.00;46636.94;4950827;29;20496;-69
2023/04/30 00:10:44;;;;;;;16.13;8.33;;;;;;;-145.18;100.00;46635.00;4950641;29;20034;-69
2023/04/30 00:13:12;;;;;;;17.33;8.90;;;;;;;-145.18;100.00;46638.91;4948100;29;20032;-69
2023/04/30 00:15:38;;;;;;;17.67;7.80;;;;;;;-145.18;100.00;46640.88;4950950;29;20489;-69
2023/04/30 00:18:05;;;;;;;15.53;7.60;;;;;;;-145.18;100.00;46640.88;4931862;29;20285;-69
2023/04/30 00:20:31;;;;;;;13.40;6.73;;;;;;;-145.18;100.00;46640.88;4949987;29;20046;-69
2023/04/30 00:22:56;;;;;;;15.13;7.60;;;;;;;-145.18;100.00;46652.59;4950471;29;20721;-69
2023/04/30 00:25:23;;;;;;;17.37;7.87;;;;;;;-145.18;100.00;46654.53;4948881;29;20027;-70
2023/04/30 00:27:48;;;;;;;14.23;7.70;;;;;;;-145.18;100.00;46660.41;4950420;29;20035;-69
2023/04/30 00:30:14;;;;;;;13.77;7.87;;;;;;;-145.18;100.00;46654.53;4947980;29;20289;-70
2023/04/30 00:32:39;;;;;;;14.50;7.80;;;;;;;-145.18;100.00;46666.25;4950617;29;20042;-70
2023/04/30 00:35:05;;;;;;;23.30;8.63;;;;;;;-145.18;100.00;46660.41;4930668;29;20036;-69
2023/04/30 00:37:31;;;;;;;16.90;8.20;;;;;;;-145.18;100.00;46683.84;4950235;29;20023;-70
2023/04/30 00:39:56;;;;;;;17.27;9.00;;;;;;;-145.18;100.00;46683.84;4947928;29;20770;-70
2023/04/30 00:42:22;;;;;;;17.27;8.37;;;;;;;-145.18;100.00;46687.75;4933577;29;20277;-70
2023/04/30 00:44:47;;;;;;;20.07;8.60;;;;;;;-145.18;100.00;46707.28;4947663;29;20063;-69
2023/04/30 00:47:12;;;;;;;14.77;8.20;;;;;;;-145.18;100.00;46711.19;4950725;29;20066;-69
2023/04/30 00:49:38;;;;;;;18.63;9.87;;;;;;;-145.18;100.00;46705.31;4947958;29;20090;-69
2023/04/30 00:52:04;;;;;;;17.33;9.13;;;;;;;-145.18;100.00;46707.28;4947829;29;20070;-70
2023/04/30 00:54:29;;;;;;;16.23;8.37;;;;;;;-145.18;100.00;46713.13;4948688;29;20075;-69
2023/04/30 00:56:55;;;;;;;17.30;9.07;;;;;;;-145.18;100.00;46717.03;4933037;29;20170;-69
2023/04/30 00:59:20;;;;;;;16.57;9.03;;;;;;;-145.18;100.00;46715.09;4949734;29;20560;-69
2023/04/30 01:01:46;;;;;;;20.80;9.27;;;;;;;-145.18;100.00;46717.03;4950056;28;20114;-69
2023/04/30 01:04:11;;;;;;;20.90;8.80;;;;;;;-145.18;100.00;46711.19;4950528;28;20484;-69
2023/04/30 01:06:37;;;;;;;17.23;9.33;;;;;;;-145.18;100.00;46713.13;4950357;29;20126;-69
2023/04/30 01:09:03;;;;;;;17.53;8.57;;;;;;;-145.18;100.00;46715.09;4947929;29;20032;-69
2023/04/30 01:11:53;;;;;;;20.83;9.37;;;;;;;-145.18;100.00;46709.22;4950325;29;20075;-70
2023/04/30 01:14:29;;;;;;;23.50;9.50;;;;;;;-145.18;100.00;46711.19;4949773;28;20575;-69
2023/04/30 01:17:21;;;;;;;18.23;8.60;;;;;;;-145.18;100.00;46705.31;4953226;29;20754;-69
2023/04/30 01:19:47;;;;;;;18.60;8.90;;;;;;;-145.18;100.00;46707.28;4948962;29;20274;-70
2023/04/30 01:22:25;;;;;;;14.23;8.57;;;;;;;-145.18;100.00;46709.22;4954016;29;20301;-69
2023/04/30 01:25:23;;;;;;;15.80;8.07;;;;;;;-145.18;100.00;46713.13;4948474;29;20038;-69
2023/04/30 01:28:05;;;;;;;15.70;8.77;;;;;;;-145.18;100.00;46709.22;4953149;29;20272;-69
2023/04/30 01:30:32;;;;;;;15.07;8.27;;;;;;;-145.18;100.00;46713.13;4951014;29;20324;-70
2023/04/30 01:32:58;;;;;;;15.13;8.17;;;;;;;-145.18;100.00;46709.22;4952911;29;20775;-70
2023/04/30 01:35:37;;;;;;;19.67;8.33;;;;;;;-145.18;100.00;46713.13;4950976;29;20275;-69
2023/04/30 01:38:33;;;;;;;15.37;8.43;;;;;;;-145.18;100.00;46715.09;4951435;29;20285;-69
2023/04/30 01:41:12;;;;;;;17.33;8.83;;;;;;;-145.18;100.00;46707.28;4953358;29;20309;-70
2023/04/30 01:43:54;;;;;;;14.70;9.03;;;;;;;-145.18;100.00;46713.13;4952923;29;20289;-69
2023/04/30 01:46:41;;;;;;;16.50;8.90;;;;;;;-145.18;100.00;46709.22;4935892;29;20808;-69
2023/04/30 01:49:15;;;;;;;17.23;8.67;;;;;;;-145.18;100.00;46709.22;4948101;29;20289;-69
2023/04/30 01:51:46;;;;;;;18.23;9.37;;;;;;;-145.18;100.00;46715.09;4953353;29;20368;-70
2023/04/30 01:54:23;;;;;;;16.27;8.67;;;;;;;-145.18;100.00;46705.31;4947980;29;20289;-70
2023/04/30 01:57:26;;;;;;;15.83;8.70;;;;;;;-145.18;100.00;46705.31;4953028;29;20380;-70
2023/04/30 01:59:52;;;;;;;16.37;9.20;;;;;;;-145.18;100.00;46711.19;4905170;29;20280;-70
2023/04/30 02:02:18;;;;;;;16.07;9.17;;;;;;;-145.18;100.00;46711.19;5349096;23;20754;-70
2023/04/30 02:04:43;;;;;;;17.17;9.00;;;;;;;-145.18;100.00;46705.31;4962749;28;20109;-70
2023/04/30 02:07:08;;;;;;;20.50;10.47;;;;;;;-145.18;100.00;46705.31;4971461;28;20102;-70
2023/04/30 02:09:34;;;;;;;19.47;10.03;;;;;;;-145.18;100.00;46705.31;4972089;28;20502;-70
2023/04/30 02:11:59;;;;;;;20.53;10.27;;;;;;;-145.18;100.00;46705.31;4971854;28;20133;-70
2023/04/30 02:14:24;;;;;;;22.87;9.90;;;;;;;-145.18;100.00;46705.31;4971740;28;20543;-70
2023/04/30 02:16:50;;;;;;;15.00;9.50;;;;;;;-145.18;100.00;46703.38;4972488;28;20034;-70
2023/04/30 02:19:15;;;;;;;17.57;9.20;;;;;;;-145.18;100.00;46699.47;4969163;28;20089;-70
2023/04/30 02:21:40;;;;;;;19.63;10.20;;;;;;;-145.18;100.00;46701.41;4972131;28;20499;-71
2023/04/30 02:24:06;;;;;;;17.77;10.33;;;;;;;-145.18;100.00;46701.41;4953716;28;20432;-70
2023/04/30 02:26:31;;;;;;;17.70;9.80;;;;;;;-145.18;100.00;46697.50;4971537;28;20046;-70
2023/04/30 02:28:57;;;;;;;19.83;10.17;;;;;;;-145.18;100.00;46701.41;4969033;28;20062;-70
2023/04/30 02:31:22;;;;;;;19.23;10.27;;;;;;;-145.18;100.00;46689.69;4972414;28;20510;-70
2023/04/30 02:33:47;;;;;;;18.93;9.47;;;;;;;-145.18;100.00;46693.59;4968714;28;20475;-70
2023/04/30 02:36:13;;;;;;;19.30;10.30;;;;;;;-145.18;100.00;46697.50;4971971;28;20105;-70
2023/04/30 02:38:38;;;;;;;16.20;9.30;;;;;;;-145.18;100.00;46697.50;4971847;28;20077;-70
2023/04/30 02:41:03;;;;;;;16.03;9.10;;;;;;;-145.18;100.00;46703.38;4969924;28;20138;-70
2023/04/30 02:43:29;;;;;;;15.60;9.30;;;;;;;-145.18;100.00;46697.50;4968864;28;20053;-70
2023/04/30 02:45:54;;;;;;;15.97;9.23;;;;;;;-145.18;100.00;46689.69;4971748;28;20514;-70
2023/04/30 02:48:20;;;;;;;15.93;8.77;;;;;;;-145.18;100.00;46695.56;4969425;28;20047;-70
2023/04/30 02:50:45;;;;;;;15.87;8.77;;;;;;;-145.18;100.00;46695.56;4971926;28;20113;-70
2023/04/30 02:53:10;;;;;;;18.57;9.77;;;;;;;-145.18;100.00;46691.66;4970803;28;20221;-71
2023/04/30 02:55:36;;;;;;;18.60;9.93;;;;;;;-145.18;100.00;46683.84;4971586;28;20062;-70
2023/04/30 02:58:01;;;;;;;19.10;10.03;;;;;;;-145.18;100.00;46699.47;4968397;28;20039;-70
2023/04/30 03:00:27;;;;;;;19.63;9.53;;;;;;;-145.18;100.00;46685.78;4971547;28;20121;-70
2023/04/30 03:02:52;;;;;;;18.73;11.07;;;;;;;-145.18;100.00;46687.75;4951892;28;20188;-70
2023/04/30 03:05:17;;;;;;;18.37;9.30;;;;;;;-145.18;100.00;46695.56;4952038;29;20043;-70
2023/04/30 03:07:43;;;;;;;19.73;10.63;;;;;;;-145.18;100.00;46695.56;4949078;29;20043;-70
2023/04/30 03:10:08;;;;;;;21.80;9.70;;;;;;;-145.18;100.00;46691.66;4951928;29;20038;-70
2023/04/30 03:12:34;;;;;;;19.73;9.97;;;;;;;-145.18;100.00;46687.75;4950306;29;20040;-70
2023/04/30 03:14:59;;;;;;;15.70;9.10;;;;;;;-145.18;100.00;46695.56;4950831;29;20040;-71
2023/04/30 03:17:25;;;;;;;19.10;9.50;;;;;;;-145.18;100.00;46687.75;4951512;29;20568;-70
2023/04/30 03:19:50;;;;;;;15.20;8.80;;;;;;;-145.18;100.00;46685.78;4949280;29;20046;-70
2023/04/30 03:22:18;;;;;;;16.87;9.10;;;;;;;-145.18;100.00;46687.75;4934094;29;20035;-70
2023/04/30 03:24:43;;;;;;;16.40;9.17;;;;;;;-145.18;100.00;46699.47;4950940;29;20460;-70
2023/04/30 03:27:09;;;;;;;17.40;9.37;;;;;;;-145.18;100.00;46695.56;4951590;29;20289;-70
2023/04/30 03:29:34;;;;;;;16.00;8.83;;;;;;;-145.18;100.00;46687.75;4951560;29;20043;-70
2023/04/30 03:31:59;;;;;;;19.07;9.43;;;;;;;-145.18;100.00;46695.56;4951687;29;20119;-70
2023/04/30 03:34:25;;;;;;;17.03;8.90;;;;;;;-145.18;100.00;46687.75;4948495;29;20090;-70
2023/04/30 03:36:50;;;;;;;16.63;8.80;;;;;;;-145.18;100.00;46693.59;4951371;28;20109;-70
2023/04/30 03:39:15;;;;;;;18.63;8.50;;;;;;;-145.18;100.00;46685.78;4948381;29;20066;-70
2023/04/30 03:41:41;;;;;;;16.20;9.50;;;;;;;-145.18;100.00;46687.75;4951668;29;20488;-70
2023/04/30 03:44:13;;;;;;;14.60;8.37;;;;;;;-145.18;100.00;46695.56;4948561;29;20043;-70
2023/04/30 03:46:39;;;;;;;14.60;8.17;;;;;;;-145.18;100.00;46693.59;4949998;29;20031;-70
2023/04/30 03:49:04;;;;;;;17.27;8.67;;;;;;;-145.18;100.00;46691.66;4948395;29;20285;-70
2023/04/30 03:51:29;;;;;;;15.87;8.87;;;;;;;-145.18;100.00;46695.56;4951462;29;20051;-70
2023/04/30 03:53:55;;;;;;;14.73;8.13;;;;;;;-145.18;100.00;46701.41;4946000;29;20066;-70
2023/04/30 03:56:20;;;;;;;17.10;9.47;;;;;;;-145.18;100.00;46695.56;4951060;29;20071;-70
2023/04/30 03:58:46;;;;;;;14.43;8.30;;;;;;;-145.18;100.00;46693.59;4948437;29;20479;-70
2023/04/30 04:01:11;;;;;;;18.23;9.47;;;;;;;-145.18;100.00;46693.59;4951171;29;20073;-70
2023/04/30 04:03:37;;;;;;;16.13;8.80;;;;;;;-145.18;100.00;46693.59;4947891;29;20074;-70
2023/04/30 04:06:03;;;;;;;15.43;8.93;;;;;;;-145.18;100.00;46691.66;4951115;28;20114;-70
2023/04/30 04:08:28;;;;;;;16.67;8.27;;;;;;;-145.18;100.00;46685.78;4948635;29;20107;-70
2023/04/30 04:10:54;;;;;;;16.53;8.50;;;;;;;-145.18;100.00;46687.75;4951225;29;20269;-70
2023/04/30 04:13:20;;;;;;;16.50;8.73;;;;;;;-145.18;100.00;46693.59;4948028;29;20039;-70
2023/04/30 04:15:45;;;;;;;16.57;8.87;;;;;;;-145.18;100.00;46697.50;4933165;29;20050;-70
2023/04/30 04:18:10;;;;;;;17.80;8.57;;;;;;;-145.18;100.00;46697.50;4949838;29;20043;-69
2023/04/30 04:20:36;;;;;;;14.87;8.07;;;;;;;-145.18;100.00;46689.69;4933362;29;20070;-70
2023/04/30 04:23:01;;;;;;;17.53;8.80;;;;;;;-145.18;100.00;46701.41;4949934;29;20125;-69
2023/04/30 04:25:27;;;;;;;16.00;8.23;;;;;;;-145.18;100.00;46703.38;4950477;29;20396;-69
2023/04/30 04:27:52;;;;;;;13.00;8.60;;;;;;;-145.18;100.00;46687.75;4950321;29;20109;-69
2023/04/30 04:30:18;;;;;;;15.10;8.37;;;;;;;-145.18;100.00;46687.75;4950458;29;20038;-70
2023/04/30 04:32:49;;;;;;;13.23;7.30;;;;;;;-145.18;100.00;46697.50;4949818;29;20122;-70
2023/04/30 04:35:15;;;;;;;16.53;8.00;;;;;;;-145.18;100.00;46681.88;4902953;29;20145;-69
2023/04/30 04:37:41;;;;;;;13.67;7.90;;;;;;;-145.18;100.00;46691.66;4944710;29;20277;-70
2023/04/30 04:40:07;;;;;;;15.90;8.23;;;;;;;-145.18;100.00;46685.78;4948710;29;20318;-70
2023/04/30 04:42:33;;;;;;;17.07;7.83;;;;;;;-145.18;100.00;46695.56;4947517;29;20130;-70
2023/04/30 04:44:58;;;;;;;17.77;8.30;;;;;;;-145.18;100.00;46699.47;4930928;29;20364;-70
2023/04/30 04:47:23;;;;;;;16.67;8.80;;;;;;;-145.18;100.00;46695.56;4950412;29;20035;-70
2023/04/30 04:49:49;;;;;;;12.57;7.67;;;;;;;-145.18;100.00;46693.59;4951071;28;20074;-70
2023/04/30 04:52:14;;;;;;;14.43;8.20;;;;;;;-145.18;100.00;46695.56;4953987;29;20078;-70
2023/04/30 04:54:39;;;;;;;14.83;8.27;;;;;;;-145.18;100.00;46691.66;4934583;29;20031;-70
2023/04/30 04:57:05;;;;;;;17.90;8.87;;;;;;;-145.18;100.00;46687.75;4954157;29;20063;-70
2023/04/30 04:59:30;;;;;;;17.97;9.47;;;;;;;-145.18;100.00;46687.75;4951719;29;20461;-70
2023/04/30 05:01:55;;;;;;;17.90;9.20;;;;;;;-145.18;100.00;46679.94;4937056;29;20063;-69
2023/04/30 05:04:21;;;;;;;15.27;9.07;;;;;;;-145.18;100.00;46687.75;4951354;29;20050;-70
2023/04/30 05:06:46;;;;;;;19.30;9.53;;;;;;;-145.18;100.00;46687.75;4953698;29;20039;-70
2023/04/30 05:09:11;;;;;;;16.20;9.67;;;;;;;-145.18;100.00;46693.59;4953037;29;20062;-70
2023/04/30 05:11:37;;;;;;;18.80;9.43;;;;;;;-145.18;100.00;46683.84;4936555;29;20031;-70
2023/04/30 05:14:03;;;;;;;14.10;8.43;;;;;;;-145.18;100.00;46685.78;4953357;29;20377;-69
2023/04/30 05:16:28;;;;;;;15.77;9.53;;;;;;;-145.18;100.00;46691.66;4954419;29;20035;-69
2023/04/30 05:18:54;;;;;;;18.43;9.27;;;;;;;-145.18;100.00;46687.75;4950979;29;20368;-70
2023/04/30 05:21:20;;;;;;;16.67;9.57;;;;;;;-145.18;100.00;46687.75;4936882;29;20632;-71
2023/04/30 05:23:45;;;;;;;16.93;10.03;;;;;;;-145.18;100.00;46679.94;4950792;29;20125;-70
2023/04/30 05:26:11;;;;;;;19.97;9.27;;;;;;;-145.18;100.00;46687.75;4936699;28;20039;-70
2023/04/30 05:28:36;;;;;;;17.30;10.23;;;;;;;-145.18;100.00;46681.88;4954306;28;20043;-70
2023/04/30 05:31:02;;;;;;;17.07;10.00;;;;;;;-145.18;100.00;46677.97;4952567;29;20036;-70
2023/04/30 05:33:27;;;;;;;16.47;8.87;;;;;;;-145.18;100.00;46681.88;4936071;29;20031;-70
2023/04/30 05:35:52;;;;;;;17.80;10.10;;;;;;;-145.18;100.00;46683.84;4953869;29;20031;-70
2023/04/30 05:38:18;;;;;;;16.83;9.33;;;;;;;-145.18;100.00;46679.94;4951924;29;20047;-70
2023/04/30 05:40:43;;;;;;;17.83;10.30;;;;;;;-145.18;100.00;46676.03;4952576;29;20400;-70
2023/04/30 05:43:08;;;;;;;16.17;9.00;;;;;;;-145.18;100.00;46679.94;4953170;29;20070;-70
2023/04/30 05:45:34;;;;;;;17.97;9.73;;;;;;;-145.18;100.00;46679.94;4950825;29;20130;-70
2023/04/30 05:48:00;;;;;;;20.77;10.43;;;;;;;-145.18;100.00;46679.94;4953094;29;20046;-70
2023/04/30 05:50:26;;;;;;;17.17;9.00;;;;;;;-145.18;100.00;46676.03;4933561;29;20134;-70
2023/04/30 05:52:51;;;;;;;19.30;10.60;;;;;;;-145.18;100.00;46676.03;4952842;29;20392;-70
2023/04/30 05:55:16;;;;;;;16.33;9.67;;;;;;;-145.18;100.00;46679.94;4950674;29;20543;-70
2023/04/30 05:57:42;;;;;;;16.93;8.77;;;;;;;-145.18;100.00;46679.94;4953381;29;20047;-70
2023/04/30 06:00:08;;;;;;;13.50;9.27;;;;;;;-145.18;100.00;46677.97;4950407;28;20074;-70
2023/04/30 06:02:33;;;;;;;15.10;8.83;;;;;;;-145.18;100.00;46677.97;4952400;29;20515;-70
2023/04/30 06:05:00;;;;;;;14.23;9.30;;;;;;;-145.18;100.00;46676.03;4950311;29;20046;-70
2023/04/30 06:07:26;;;;;;;18.03;9.07;;;;;;;-145.18;100.00;46677.97;4952878;29;20543;-70
2023/04/30 06:09:51;;;;;;;15.00;8.27;;;;;;;-145.18;100.00;46683.84;4950240;29;20373;-70
2023/04/30 06:12:16;;;;;;;17.00;9.13;;;;;;;-145.18;100.00;46683.84;4952365;29;20050;-70
2023/04/30 06:14:44;;;;;;;16.00;9.20;;;;;;;-145.18;100.00;46679.94;4952252;29;20134;-70
2023/04/30 06:17:09;;;;;;;14.80;8.67;;;;;;;-145.18;100.00;46679.94;4952621;29;20030;-70
2023/04/30 06:19:35;;;;;;;14.17;8.67;;;;;;;-145.18;100.00;46683.84;4950359;29;20273;-70
2023/04/30 06:22:00;;;;;;;12.87;7.93;;;;;;;-145.18;100.00;46685.78;4952981;29;20055;-71
2023/04/30 06:24:26;;;;;;;14.47;8.03;;;;;;;-145.18;100.00;46679.94;4952320;28;20155;-71
2023/04/30 06:26:51;;;;;;;14.03;7.50;;;;;;;-145.18;100.00;46683.84;4952884;29;20499;-70
2023/04/30 06:29:17;;;;;;;15.27;7.47;;;;;;;-145.18;100.00;46687.75;4951854;29;20392;-70
2023/04/30 06:31:42;;;;;;;17.87;7.57;;;;;;;-145.18;100.00;46677.97;4952884;29;20071;-71
2023/04/30 06:34:07;;;;;;;13.93;7.43;;;;;;;-145.18;100.00;46683.84;4949441;29;20515;-70
2023/04/30 06:36:33;;;;;;;13.40;7.97;;;;;;;-145.18;100.00;46681.88;4952970;29;20773;-69
2023/04/30 06:38:58;;;;;;;16.07;7.50;;;;;;;-145.18;100.00;46677.97;4949755;29;20086;-70
2023/04/30 06:41:23;;;;;;;14.30;7.63;;;;;;;-145.18;100.00;46677.97;4952302;29;20058;-70
2023/04/30 06:43:49;;;;;;;13.70;8.00;;;;;;;-145.18;100.00;46676.03;4949592;29;20075;-69
2023/04/30 06:46:15;;;;;;;12.80;7.37;;;;;;;-145.18;100.00;46662.34;4952361;29;20488;-71
2023/04/30 06:48:40;;;;;;;11.23;7.10;;;;;;;-145.18;100.00;46652.59;4952167;29;20057;-70
2023/04/30 06:51:06;;;;;;;12.53;7.90;;;;;;;-145.18;100.00;46648.69;4933037;29;20782;-71
2023/04/30 06:53:31;;;;;;;14.37;7.40;;;;;;;-145.18;100.00;46635.00;4948245;29;20035;-71
2023/04/30 06:55:57;;;;;;;12.47;7.40;;;;;;;-145.18;100.00;46625.22;4951962;29;20519;-71
2023/04/30 06:58:23;;;;;;;19.70;8.03;;;;;;;-145.18;100.00;46601.78;4948432;28;20472;-71
2023/04/30 07:00:48;;;;;;;13.60;7.90;;;;;;;-145.18;100.00;46607.66;4954142;28;20059;-71
2023/04/30 07:03:13;;;;;;;11.63;7.87;;;;;;;-145.18;100.00;46601.78;4952983;28;20048;-71
2023/04/30 07:05:40;;;;;;;13.00;7.13;;;;;;;-145.18;100.00;46588.13;4949259;29;20078;-71
2023/04/30 07:08:06;;;;;;;13.53;7.90;;;;;;;-145.18;100.00;46584.22;4951367;29;20126;-71
2023/04/30 07:10:31;;;;;;;13.70;7.57;;;;;;;-145.18;100.00;46578.34;4951864;29;20360;-71
2023/04/30 07:12:57;;;;;;;13.00;6.97;;;;;;;-145.18;100.00;46578.34;4950329;28;20043;-71
2023/04/30 07:15:22;;;;;;;15.73;8.20;;;;;;;-145.18;100.00;46572.50;4932287;29;20099;-71
2023/04/30 07:17:48;;;;;;;14.43;7.80;;;;;;;-145.18;100.00;46562.72;4943368;29;20067;-71
2023/04/30 07:20:14;;;;;;;18.50;7.67;;;;;;;-145.18;100.00;46556.88;4948727;29;20524;-71
2023/04/30 07:22:43;;;;;;;12.33;7.97;;;;;;;-145.18;100.00;46562.72;4944660;29;20038;-71
2023/04/30 07:25:09;;;;;;;17.20;9.10;;;;;;;-145.18;100.00;46554.91;4948701;29;20034;-71
2023/04/30 07:27:34;;;;;;;11.50;8.17;;;;;;;-145.18;100.00;46558.81;4951086;29;20397;-71
2023/04/30 07:29:59;;;;;;;13.23;8.00;;;;;;;-145.18;100.00;46558.81;4943641;29;20648;-71
2023/04/30 07:32:26;;;;;;;11.00;7.23;;;;;;;-145.18;100.00;46564.69;4934671;29;20070;-71
2023/04/30 07:34:52;;;;;;;16.60;7.97;;;;;;;-145.18;100.00;46570.53;4951987;29;20035;-71
2023/04/30 07:37:18;;;;;;;16.97;8.83;;;;;;;-145.18;100.00;46564.69;4952166;29;20038;-71
2023/04/30 07:39:43;;;;;;;12.17;7.83;;;;;;;-145.18;100.00;46570.53;4951954;29;20517;-71
2023/04/30 07:42:08;;;;;;;14.57;8.80;;;;;;;-145.18;100.00;46566.63;4966908;28;20034;-71
2023/04/30 07:44:34;;;;;;;14.67;8.43;;;;;;;-145.18;100.00;46570.53;4962972;28;20039;-71
2023/04/30 07:46:59;;;;;;;14.97;8.80;;;;;;;-145.18;100.00;46572.50;4951905;29;20039;-71
2023/04/30 07:49:25;;;;;;;13.60;8.73;;;;;;;-145.18;100.00;46568.59;4951563;29;20484;-71
2023/04/30 07:51:50;;;;;;;12.90;8.07;;;;;;;-145.18;100.00;46576.41;4951999;29;20415;-71
2023/04/30 07:54:16;;;;;;;15.43;9.37;;;;;;;-145.18;100.00;46572.50;4951333;29;20043;-71
2023/04/30 07:56:41;;;;;;;14.00;8.87;;;;;;;-145.18;100.00;46572.50;4951932;29;20050;-71
2023/04/30 07:59:07;;;;;;;13.47;9.17;;;;;;;-145.18;100.00;46574.44;4949794;29;20047;-71
2023/04/30 08:01:32;;;;;;;14.67;8.73;;;;;;;-145.18;100.00;46586.16;4951465;29;20040;-71
2023/04/30 08:03:57;;;;;;;15.00;8.93;;;;;;;-145.18;100.00;46582.25;4933394;29;20058;-71
2023/04/30 08:06:24;;;;;;;14.37;8.70;;;;;;;-145.18;100.00;46590.06;4950751;29;20507;-71
2023/04/30 08:08:49;;;;;;;13.97;9.00;;;;;;;-145.18;100.00;46586.16;4948954;29;20034;-72
2023/04/30 08:11:15;;;;;;;13.63;9.13;;;;;;;-145.18;100.00;46586.16;4950305;29;20496;-71
2023/04/30 08:13:41;;;;;;;12.73;7.57;;;;;;;-145.18;100.00;46590.06;4950360;29;20068;-71
2023/04/30 08:16:07;;;;;;;14.83;8.80;;;;;;;-145.18;100.00;46592.03;4948980;29;20035;-71
2023/04/30 08:18:33;;;;;;;12.83;8.70;;;;;;;-145.18;100.00;46595.94;4946997;29;20027;-71
2023/04/30 08:20:59;;;;;;;12.27;8.13;;;;;;;-145.18;100.00;46593.97;4948539;29;20556;-72
2023/04/30 08:23:24;;;;;;;12.23;8.80;;;;;;;-145.18;100.00;46595.94;4949666;28;20067;-71
2023/04/30 08:25:50;;;;;;;14.00;9.03;;;;;;;-145.18;100.00;46593.97;4951466;29;20122;-72
2023/04/30 08:28:16;;;;;;;14.70;8.93;;;;;;;-145.18;100.00;46597.88;4952548;29;20035;-72
2023/04/30 08:30:42;;;;;;;12.67;8.77;;;;;;;-145.18;100.00;46609.59;4951664;29;20039;-72
2023/04/30 08:33:08;;;;;;;18.80;8.60;;;;;;;-145.18;100.00;46609.59;4952495;29;20043;-72
2023/04/30 08:35:33;;;;;;;12.97;8.20;;;;;;;-145.18;100.00;46621.31;4954545;29;20051;-72
2023/04/30 08:37:58;;;;;;;12.83;8.47;;;;;;;-145.18;100.00;46621.31;4954775;29;20114;-72
2023/04/30 08:40:25;;;;;;;16.33;9.50;;;;;;;-145.18;100.00;46609.59;4934499;29;20520;-72
2023/04/30 08:43:03;;;;;;;13.87;8.83;;;;;;;-145.18;100.00;46615.47;4954706;29;20674;-72
2023/04/30 08:45:31;;;;;;;14.63;9.00;;;;;;;-145.18;100.00;46627.19;4954108;29;20396;-71
2023/04/30 08:47:58;;;;;;;10.87;8.40;;;;;;;-145.18;100.00;46633.06;4954665;29;20046;-72
2023/04/30 08:50:24;;;;;;;11.53;7.80;;;;;;;-145.18;100.00;46635.00;4951401;29;20043;-72
2023/04/30 08:52:49;;;;;;;11.13;7.17;;;;;;;-145.18;100.00;46621.31;4954612;29;20374;-72
2023/04/30 08:55:14;;;;;;;10.97;7.73;;;;;;;-145.18;100.00;46648.69;4950700;29;20040;-72
2023/04/30 08:57:40;;;;;;;16.33;8.77;;;;;;;-145.18;100.00;46638.91;4937111;29;20031;-72
2023/04/30 09:00:06;;;;;;;13.63;7.47;;;;;;;-145.18;100.00;46648.69;4951199;29;20031;-72
2023/04/30 09:02:32;;;;;;;14.70;7.83;;;;;;;-145.18;100.00;46660.41;4954475;29;20066;-71
2023/04/30 09:04:58;;;;;;;10.57;7.40;;;;;;;-145.18;100.00;46679.94;4953709;29;20031;-72
2023/04/30 09:07:27;;;;;;;11.10;7.47;;;;;;;-145.18;100.00;46672.13;4954031;29;20043;-72
2023/04/30 09:09:53;;;;;;;13.33;7.73;;;;;;;-145.18;100.00;46670.16;4950875;29;20685;-71
2023/04/30 09:12:19;;;;;;;12.33;7.70;;;;;;;-145.18;100.00;46699.47;4954062;29;20039;-71
2023/04/30 09:15:02;;;;;;;12.73;7.43;;;;;;;-145.18;100.00;46687.75;4953625;29;20519;-72
2023/04/30 09:17:28;;;;;;;10.73;7.00;;;;;;;-145.18;100.00;46703.38;4953287;29;20042;-71
2023/04/30 09:20:05;;;;;;;17.03;8.80;;;;;;;-145.18;100.00;46693.59;4953322;29;20038;-71
2023/04/30 09:22:30;;;;;;;11.93;7.20;;;;;;;-145.18;100.00;46695.56;4935683;29;20048;-72
2023/04/30 09:24:56;;;;;;;12.33;7.57;;;;;;;-145.18;100.00;46685.78;4935833;29;20163;-71
2023/04/30 09:27:22;;;;;;;13.17;7.17;;;;;;;-145.18;100.00;46679.94;4953151;29;20512;-71
2023/04/30 09:29:47;;;;;;;11.00;7.03;;;;;;;-145.18;100.00;46738.53;4952493;29;20031;-72
2023/04/30 09:32:13;;;;;;;8.87;6.43;;;;;;;-145.18;100.00;46707.28;4953701;29;20035;-71
2023/04/30 09:34:39;;;;;;;10.57;7.30;;;;;;;-145.18;100.00;46771.75;4953190;28;20153;-71
2023/04/30 09:37:06;;;;;;;12.20;7.17;;;;;;;-145.18;100.00;46719.00;4936055;29;20565;-71
2023/04/30 09:39:32;;;;;;;11.63;7.57;;;;;;;-145.18;100.00;46750.25;4953025;29;20035;-72
2023/04/30 09:42:10;;;;;;;10.27;7.30;;;;;;;-145.18;100.00;46773.69;4953515;29;20106;-71
2023/04/30 09:44:40;;;;;;;9.07;6.97;;;;;;;-145.18;100.00;46808.84;4950679;29;20027;-71
2023/04/30 09:47:19;;;;;;;10.97;6.00;;;;;;;-145.18;100.00;46885.03;4952978;29;20039;-71
2023/04/30 09:49:50;;;;;;;8.87;6.40;;;;;;;-145.18;100.00;47211.28;4950962;29;20440;-72
2023/04/30 09:52:17;;;;;;;10.50;6.60;;;;;;;-145.18;100.00;47262.06;4953214;29;20034;-71
2023/04/30 09:54:46;;;;;;;10.73;6.00;;;;;;;-145.18;100.00;47221.03;4950095;29;20241;-72
2023/04/30 09:57:13;;;;;;;9.70;6.80;;;;;;;-145.18;100.00;46890.91;4951589;29;20620;-71
2023/04/30 09:59:43;;;;;;;8.70;6.53;;;;;;;-145.18;100.00;46890.91;4952614;29;20038;-72
2023/04/30 10:02:09;;;;;;;9.40;6.07;;;;;;;-145.18;100.00;47338.25;4952043;29;20046;-72
2023/04/30 10:04:40;;;;;;;10.63;7.33;;;;;;;-145.18;100.00;47301.16;4953209;29;20035;-71
2023/04/30 10:07:18;;;;;;;8.40;6.20;;;;;;;-145.18;100.00;47355.84;4952268;29;20204;-71
2023/04/30 10:10:01;;;;;;;9.80;6.03;;;;;;;-145.18;100.00;47330.44;4952534;29;20039;-71
2023/04/30 10:12:42;;;;;;;8.40;5.27;;;;;;;-145.18;100.00;47320.69;4952935;29;20473;-71
2023/04/30 10:15:16;;;;;;;9.23;6.40;;;;;;;-145.18;100.00;47324.59;4950446;29;20035;-71
2023/04/30 10:17:48;;;;;;;10.90;6.10;;;;;;;-145.18;100.00;47314.81;4953470;29;20031;-71
2023/04/30 10:20:16;;;;;;;12.20;6.47;;;;;;;-145.18;100.00;47338.25;4951492;29;20034;-71
2023/04/30 10:22:42;;;;;;;8.87;6.23;;;;;;;-145.18;100.00;47310.91;4950134;29;20074;-71
2023/04/30 10:25:12;;;;;;;10.87;6.47;;;;;;;-145.18;100.00;47236.66;4947631;29;20030;-71
2023/04/30 10:27:38;;;;;;;8.53;5.87;;;;;;;-145.18;100.00;47238.63;4952385;29;20452;-71
2023/04/30 10:30:06;;;;;;;11.47;5.93;;;;;;;-145.18;100.00;47219.09;4945529;28;20083;-71
2023/04/30 10:33:00;;;;;;;7.77;5.40;;;;;;;-145.18;100.00;47228.84;4952542;29;20066;-71
2023/04/30 10:35:32;;;;;;;11.20;6.10;;;;;;;-145.18;100.00;47211.28;4948788;29;20701;-71
2023/04/30 10:38:14;;;;;;;7.97;5.67;;;;;;;-145.18;100.00;47209.31;4950387;29;20449;-71
2023/04/30 10:40:39;;;;;;;8.63;6.20;;;;;;;-145.18;100.00;47211.28;4950325;29;20078;-71
2023/04/30 10:43:05;;;;;;;6.83;5.33;;;;;;;-145.18;100.00;47213.22;4951309;29;20043;-71
2023/04/30 10:45:40;;;;;;;9.83;7.00;;;;;;;-145.18;100.00;47201.50;4951776;28;20043;-71
2023/04/30 10:48:06;;;;;;;6.95;5.57;;;;;;;-145.18;100.00;47211.28;4949830;29;20023;-71
2023/04/30 10:50:31;;;;;;;7.63;5.60;;;;;;;-145.18;100.00;47207.38;4949606;29;20556;-71
2023/04/30 10:53:04;;;;;;;9.37;6.23;;;;;;;-145.18;100.00;47183.94;4952223;29;20085;-71
2023/04/30 10:55:30;;;;;;;7.80;5.80;;;;;;;-145.18;100.00;47197.59;4949795;28;20043;-71
2023/04/30 10:57:57;;;;;;;10.83;5.70;;;;;;;-145.18;100.00;47176.09;4959775;28;20070;-71
2023/04/30 11:00:27;;;;;;;8.40;6.00;;;;;;;-145.18;100.00;47174.16;4961008;28;20454;-71
2023/04/30 11:03:02;;;;;;;9.73;5.40;;;;;;;-145.18;100.00;47172.19;4960567;28;20051;-71